To NAV CANADA Home Page Login to a new session Search on AWWS site Feedback and Comments Disclaimer Vers la page française équivalente Tips FAQ What's new on the site To the Forecasts and Observations / NOTAM section To "File a Flight Plan" website Publications and other links Update of the User's profile FIC Telephone Numbers My Weather Data Folder Route Weather Data Regional Weather Data Local Weather Data To the Forecasts and Observations / NOTAM section
Request Generated 08/22/2017 at 03:31:11 UTC . Weather information available at that time is displayed.

METAR/TAF

NATASHQUAN/QC    (show WxCam)

METAR CYNA 220300Z AUTO 28006KT 3/8SM FG VV002 12/12 A2975 RMK
SLP077=
SPECI CYNA 220203Z AUTO 27008KT 1SM BR OVC002 13/13 A2975 RMK SLP077=
METAR CYNA 220200Z AUTO 27010KT 2SM BR OVC004 13/13 A2976 RMK SLP078=
SPECI CYNA 220159Z AUTO 27010KT 2 1/4SM BR OVC004 13/13 A2976 RMK
SLP078=
SPECI CYNA 220122Z AUTO 25007KT 3SM BR BKN004 BKN130 OVC150 13/13
A2976 RMK SLP080=
SPECI CYNA 220114Z AUTO 24009KT 3SM BR BKN006 BKN130 OVC150 13/13
A2977 RMK SLP081=
METAR CYNA 220100Z AUTO 23009KT 5SM BR BKN130 OVC160 13/13 A2976 RMK
SLP080=

TAF AMD CYNA 220251Z 2202/2214 24007KT 1SM BR OVC002 TEMPO 2202/2211
3SM BR SCT002 BKN030
FM221100 27010KT P6SM FEW030
RMK FCST BASED ON AUTO OBS. NXT FCST BY 220800Z=
Your time UTC time
Weather data provided by Environment Canada and NAV CANADA